Time;durP1;ratioP1;P1;durP2;ratioP2;P2;SDS_P1;SDS_P2;PMS_P1;PMS_P2;Temp;Humidity;BMP_temperature;BMP_pressure;BME280_temperature;BME280_humidity;BME280_pressure;Samples;Min_cycle;Max_cycle;Signal;HPM_P1;HPM_P2
2021/09/05 00:01:35;;;;;;;7.43;5.10;;;;;;;17.39;100.00;98156.19;5100701;28;20295;-73
2021/09/05 00:04:02;;;;;;;5.53;4.03;;;;;;;17.33;100.00;98160.53;5107214;28;20240;-73
2021/09/05 00:06:29;;;;;;;6.07;4.03;;;;;;;17.21;100.00;98163.56;5096763;28;20232;-71
2021/09/05 00:08:56;;;;;;;8.00;5.53;;;;;;;17.24;100.00;98162.81;5075399;28;20315;-73
2021/09/05 00:11:23;;;;;;;7.10;4.90;;;;;;;17.21;100.00;98164.38;5092302;28;20295;-72
2021/09/05 00:13:50;;;;;;;5.90;4.23;;;;;;;17.10;100.00;98179.34;5091863;28;20256;-73
2021/09/05 00:16:16;;;;;;;8.50;5.00;;;;;;;17.04;100.00;98167.72;5092663;28;20292;-74
2021/09/05 00:18:43;;;;;;;6.07;4.10;;;;;;;17.11;100.00;98170.63;5093195;28;20204;-72
2021/09/05 00:21:09;;;;;;;5.93;4.27;;;;;;;17.10;100.00;98173.78;5092735;28;20204;-73
2021/09/05 00:23:36;;;;;;;6.90;4.97;;;;;;;17.07;100.00;98171.75;5092619;28;20224;-73
2021/09/05 00:26:02;;;;;;;7.13;4.97;;;;;;;17.11;100.00;98170.63;5092657;28;20232;-72
2021/09/05 00:28:29;;;;;;;7.67;4.27;;;;;;;17.07;100.00;98160.59;5092742;28;20252;-73
2021/09/05 00:30:55;;;;;;;7.33;4.37;;;;;;;17.00;100.00;98160.53;5091635;28;20210;-72
2021/09/05 00:33:22;;;;;;;7.57;5.17;;;;;;;16.96;100.00;98166.06;5090950;28;20236;-71
2021/09/05 00:35:48;;;;;;;9.27;4.50;;;;;;;17.01;100.00;98170.47;5092252;28;20295;-71
2021/09/05 00:38:15;;;;;;;8.13;5.00;;;;;;;17.07;100.00;98166.19;5091725;28;20255;-71
2021/09/05 00:40:41;;;;;;;8.63;4.87;;;;;;;16.96;100.00;98168.03;5091674;28;20204;-74
2021/09/05 00:43:08;;;;;;;5.87;4.40;;;;;;;16.86;100.00;98163.13;5091392;28;20234;-73
2021/09/05 00:45:34;;;;;;;6.50;4.43;;;;;;;16.85;100.00;98183.81;5074443;28;20389;-73
2021/09/05 00:48:01;;;;;;;7.30;4.70;;;;;;;16.95;100.00;98174.81;5093129;28;20205;-72
2021/09/05 00:50:29;;;;;;;6.37;4.43;;;;;;;16.92;100.00;98175.53;5078375;28;20255;-71
2021/09/05 00:52:55;;;;;;;6.83;4.57;;;;;;;16.89;100.00;98174.31;5073000;28;20221;-72
2021/09/05 00:55:22;;;;;;;7.00;4.40;;;;;;;16.90;100.00;98175.09;5071200;28;20744;-72
2021/09/05 00:57:51;;;;;;;8.77;4.47;;;;;;;16.85;100.00;98186.59;5072586;28;20201;-72
2021/09/05 01:34:23;;;;;;;7.33;4.73;;;;;;;16.55;100.00;98208.84;5109230;27;20572;-73
2021/09/05 01:36:52;;;;;;;7.57;5.07;;;;;;;16.61;100.00;98206.53;5109496;28;20230;-72
2021/09/05 01:39:22;;;;;;;7.47;4.60;;;;;;;16.67;100.00;98202.25;5109559;28;20298;-73
2021/09/05 01:41:49;;;;;;;7.67;4.80;;;;;;;16.59;100.00;98198.56;5109869;28;20298;-74
2021/09/05 01:44:21;;;;;;;6.43;4.77;;;;;;;16.75;100.00;98206.78;5109578;28;20306;-72
2021/09/05 01:46:48;;;;;;;7.07;5.03;;;;;;;16.79;100.00;98208.41;5112405;28;20302;-72
2021/09/05 01:49:15;;;;;;;8.63;5.57;;;;;;;16.74;100.00;98205.16;5115430;28;20283;-73
2021/09/05 01:51:42;;;;;;;7.20;4.87;;;;;;;16.70;100.00;98202.31;5119703;28;20215;-73
2021/09/05 01:54:08;;;;;;;8.20;4.93;;;;;;;16.59;100.00;98206.13;5113857;28;20228;-73
2021/09/05 01:56:35;;;;;;;8.13;4.97;;;;;;;16.55;100.00;98203.28;5107474;28;20204;-71
2021/09/05 01:59:03;;;;;;;5.63;4.30;;;;;;;16.46;100.00;98211.06;5108929;28;20214;-73
2021/09/05 02:01:30;;;;;;;8.17;4.50;;;;;;;16.42;100.00;98214.97;5108936;28;20668;-72
2021/09/05 02:03:58;;;;;;;8.23;4.83;;;;;;;16.40;100.00;98207.00;5108679;28;20227;-71
2021/09/05 02:06:26;;;;;;;7.77;5.10;;;;;;;16.44;100.00;98212.63;5108655;28;20298;-72
2021/09/05 02:08:55;;;;;;;6.33;4.67;;;;;;;16.42;100.00;98209.41;5107799;28;20677;-72
2021/09/05 02:11:21;;;;;;;7.33;5.23;;;;;;;16.24;100.00;98215.50;5108820;28;20208;-72
2021/09/05 02:13:48;;;;;;;6.40;4.90;;;;;;;16.31;100.00;98209.25;5108208;28;20811;-71
2021/09/05 02:16:14;;;;;;;8.20;5.30;;;;;;;16.33;100.00;98215.22;5108597;28;20298;-71
2021/09/05 02:18:42;;;;;;;6.83;4.67;;;;;;;16.38;100.00;98216.91;5108937;28;20204;-72
2021/09/05 02:21:08;;;;;;;6.33;4.53;;;;;;;16.33;100.00;98220.00;5107673;28;20204;-73
2021/09/05 02:23:35;;;;;;;6.47;4.77;;;;;;;16.30;100.00;98223.53;5107065;28;20319;-72
2021/09/05 02:26:01;;;;;;;8.90;4.27;;;;;;;16.29;100.00;98221.94;5108083;28;20200;-72
2021/09/05 02:28:28;;;;;;;8.33;5.20;;;;;;;16.31;100.00;98225.16;5108776;28;20196;-72
2021/09/05 02:30:54;;;;;;;7.33;5.07;;;;;;;16.36;100.00;98213.69;5107419;28;20230;-72
2021/09/05 02:33:21;;;;;;;5.70;4.37;;;;;;;16.29;100.00;98216.34;5107863;28;20231;-72
2021/09/05 02:35:47;;;;;;;8.20;4.37;;;;;;;16.39;100.00;98219.31;5106886;28;20294;-73
2021/09/05 02:38:14;;;;;;;10.20;4.93;;;;;;;16.27;100.00;98219.53;5107234;28;20208;-73
2021/09/05 02:40:40;;;;;;;6.57;4.47;;;;;;;16.23;100.00;98225.03;5107104;28;20291;-73
2021/09/05 02:43:07;;;;;;;8.30;4.80;;;;;;;16.18;100.00;98228.09;5108274;28;20354;-72
2021/09/05 02:45:33;;;;;;;5.93;4.07;;;;;;;16.21;100.00;98230.16;5095204;28;20673;-71
2021/09/05 02:48:00;;;;;;;7.43;4.83;;;;;;;16.25;100.00;98233.00;5093368;28;20209;-72
2021/09/05 02:50:26;;;;;;;7.30;4.47;;;;;;;16.20;100.00;98231.31;5080285;28;20232;-72
2021/09/05 02:52:53;;;;;;;6.63;4.73;;;;;;;16.23;100.00;98235.34;5074133;28;20235;-72
2021/09/05 02:55:19;;;;;;;6.87;4.77;;;;;;;16.19;100.00;98226.94;5089144;28;20236;-73
2021/09/05 02:57:46;;;;;;;6.67;4.73;;;;;;;16.18;100.00;98230.88;5096426;28;20227;-71
2021/09/05 03:00:13;;;;;;;6.63;4.60;;;;;;;16.15;100.00;98234.44;5129569;28;20231;-72
2021/09/05 03:02:40;;;;;;;7.80;5.33;;;;;;;16.16;100.00;98224.09;5135386;28;20224;-73
2021/09/05 03:05:07;;;;;;;8.53;5.50;;;;;;;16.20;100.00;98234.09;5119737;28;20340;-73
2021/09/05 03:07:35;;;;;;;6.87;4.40;;;;;;;16.12;100.00;98235.19;5114969;28;20671;-71
2021/09/05 03:10:01;;;;;;;10.30;5.00;;;;;;;16.05;100.00;98228.69;5113304;28;20207;-72
2021/09/05 03:12:28;;;;;;;6.90;4.67;;;;;;;16.04;100.00;98236.22;5114669;28;20299;-71
2021/09/05 03:14:54;;;;;;;9.90;5.20;;;;;;;16.06;100.00;98236.66;5113915;28;20310;-71
2021/09/05 03:17:21;;;;;;;5.47;4.20;;;;;;;16.01;100.00;98228.63;5113363;28;20210;-71
2021/09/05 03:19:47;;;;;;;7.30;4.53;;;;;;;16.03;100.00;98231.84;5079591;28;20222;-73
2021/09/05 03:22:14;;;;;;;7.47;4.30;;;;;;;16.03;100.00;98233.81;5114385;28;20199;-73
2021/09/05 03:24:40;;;;;;;5.93;4.30;;;;;;;16.07;100.00;98232.72;5112276;28;20798;-75
2021/09/05 03:27:07;;;;;;;7.73;4.83;;;;;;;16.04;100.00;98233.44;5096473;28;20227;-73
2021/09/05 03:29:33;;;;;;;6.20;4.03;;;;;;;16.06;100.00;98231.09;5100226;28;20777;-71
2021/09/05 03:32:00;;;;;;;7.73;4.27;;;;;;;15.99;100.00;98228.19;5099635;28;20267;-72
2021/09/05 03:34:26;;;;;;;7.70;3.87;;;;;;;15.88;100.00;98237.50;5104833;28;20761;-74
2021/09/05 03:36:53;;;;;;;6.73;4.30;;;;;;;15.88;100.00;98243.88;5101200;28;20272;-73
2021/09/05 03:39:19;;;;;;;7.87;4.60;;;;;;;15.92;100.00;98241.16;5086662;28;20216;-73
2021/09/05 03:41:46;;;;;;;6.50;4.60;;;;;;;15.76;100.00;98249.63;5104632;28;20205;-73
2021/09/05 03:44:12;;;;;;;7.30;3.83;;;;;;;15.81;100.00;98246.53;5097120;28;20641;-73
2021/09/05 03:46:39;;;;;;;8.60;3.90;;;;;;;15.77;100.00;98253.19;5092173;28;20287;-74
2021/09/05 03:49:05;;;;;;;7.10;4.43;;;;;;;15.75;100.00;98248.00;5090396;28;20288;-73
2021/09/05 03:51:32;;;;;;;5.07;4.00;;;;;;;15.76;100.00;98262.72;5073098;28;20205;-71
2021/09/05 03:53:58;;;;;;;8.60;5.10;;;;;;;15.75;100.00;98258.31;5071723;28;20239;-72
2021/09/05 03:56:25;;;;;;;6.97;4.67;;;;;;;15.76;100.00;98249.63;5071940;28;20219;-72
2021/09/05 03:58:51;;;;;;;7.57;4.90;;;;;;;15.74;100.00;98257.53;5073369;28;20292;-72
2021/09/05 04:01:17;;;;;;;7.37;4.37;;;;;;;15.67;100.00;98265.75;5055981;28;20209;-73
2021/09/05 04:03:44;;;;;;;6.03;4.50;;;;;;;15.72;100.00;98264.63;5078386;28;20209;-73
2021/09/05 04:06:11;;;;;;;7.93;4.87;;;;;;;15.67;100.00;98262.97;5093566;28;20209;-73
2021/09/05 04:08:46;;;;;;;7.07;4.53;;;;;;;15.66;100.00;98263.31;5109350;28;20244;-72
2021/09/05 04:11:13;;;;;;;6.27;4.27;;;;;;;15.68;100.00;98269.31;5073244;28;20208;-72
2021/09/05 04:13:39;;;;;;;6.70;4.57;;;;;;;15.63;100.00;98267.66;5072545;28;20235;-72
2021/09/05 04:16:06;;;;;;;9.33;4.83;;;;;;;15.61;100.00;98264.44;5072387;28;20213;-72
2021/09/05 04:18:32;;;;;;;6.53;3.93;;;;;;;15.57;100.00;98263.53;5072500;28;20201;-73
2021/09/05 04:20:59;;;;;;;7.77;4.47;;;;;;;15.53;100.00;98267.44;5072863;28;20296;-72
2021/09/05 04:23:26;;;;;;;5.90;4.00;;;;;;;15.57;100.00;98260.75;5072502;28;20222;-71
2021/09/05 04:25:52;;;;;;;8.67;4.40;;;;;;;15.61;100.00;98269.19;5073624;28;20201;-72
2021/09/05 04:28:19;;;;;;;8.07;4.67;;;;;;;15.62;100.00;98274.38;5075410;28;20288;-72
2021/09/05 04:30:45;;;;;;;8.43;4.67;;;;;;;15.61;100.00;98270.00;5092639;28;20312;-72
2021/09/05 04:33:12;;;;;;;11.30;4.87;;;;;;;15.53;100.00;98271.00;5090554;28;20228;-71
2021/09/05 04:35:38;;;;;;;5.17;4.00;;;;;;;15.60;100.00;98265.59;5092366;28;20337;-71
2021/09/05 04:38:05;;;;;;;6.90;4.37;;;;;;;15.56;100.00;98270.28;5092677;28;20208;-71
2021/09/05 04:40:31;;;;;;;5.10;4.23;;;;;;;15.55;100.00;98282.56;5091332;28;20208;-72
2021/09/05 04:42:57;;;;;;;5.17;3.93;;;;;;;15.57;100.00;98271.06;5092409;28;20315;-72
2021/09/05 04:45:24;;;;;;;6.70;4.37;;;;;;;15.59;100.00;98275.13;5091747;28;20295;-72
2021/09/05 04:47:51;;;;;;;5.63;4.20;;;;;;;15.52;100.00;98282.50;5091010;28;20232;-71
2021/09/05 04:50:17;;;;;;;9.30;4.93;;;;;;;15.52;100.00;98279.72;5079326;28;20229;-72
2021/09/05 04:52:44;;;;;;;7.43;4.70;;;;;;;15.50;100.00;98280.09;5072203;28;20229;-74
2021/09/05 04:55:10;;;;;;;6.80;4.20;;;;;;;15.62;100.00;98282.72;5071184;28;20759;-73
2021/09/05 04:57:37;;;;;;;7.60;4.20;;;;;;;15.63;100.00;98281.56;5090709;28;20232;-71
2021/09/05 05:00:04;;;;;;;5.70;4.13;;;;;;;15.64;100.00;98280.38;5092267;28;20292;-71
2021/09/05 05:02:30;;;;;;;9.40;4.97;;;;;;;15.63;100.00;98283.53;5091890;28;20208;-72
2021/09/05 05:04:57;;;;;;;9.70;4.57;;;;;;;15.70;100.00;98284.47;5091557;28;20229;-72
2021/09/05 05:07:24;;;;;;;6.37;4.43;;;;;;;15.78;100.00;98285.44;5092104;28;20251;-73
2021/09/05 05:09:53;;;;;;;7.20;3.93;;;;;;;16.07;100.00;98288.41;5090870;28;20284;-73
2021/09/05 05:12:20;;;;;;;7.03;4.40;;;;;;;16.07;100.00;98290.38;5092018;28;20300;-74
2021/09/05 05:14:47;;;;;;;7.00;4.00;;;;;;;16.08;100.00;98289.19;5091604;28;20593;-74
2021/09/05 05:17:13;;;;;;;6.27;4.10;;;;;;;16.08;100.00;98301.13;5093747;28;20920;-74
2021/09/05 05:19:40;;;;;;;7.50;4.70;;;;;;;16.12;100.00;98295.63;5094978;28;20209;-73
2021/09/05 05:22:06;;;;;;;5.60;3.93;;;;;;;16.11;100.00;98302.38;5093163;28;20208;-72
2021/09/05 05:24:33;;;;;;;5.73;4.63;;;;;;;16.27;100.00;98302.25;5075430;28;20307;-72
2021/09/05 05:26:59;;;;;;;7.80;5.17;;;;;;;16.31;100.00;98298.38;5097206;28;20762;-72
2021/09/05 05:29:26;;;;;;;6.23;4.20;;;;;;;16.27;100.00;98296.69;5070681;28;20224;-73
2021/09/05 05:31:53;;;;;;;5.97;4.20;;;;;;;16.35;100.00;98302.00;5085557;28;20264;-72
2021/09/05 05:34:19;;;;;;;7.07;4.80;;;;;;;16.53;100.00;98294.78;5098791;28;20735;-73
2021/09/05 05:36:46;;;;;;;9.10;4.90;;;;;;;16.41;100.00;98302.50;5091310;28;20581;-71
2021/09/05 05:39:12;;;;;;;9.93;4.23;;;;;;;16.50;100.00;98305.88;5091784;28;20287;-71
2021/09/05 05:41:39;;;;;;;8.27;4.97;;;;;;;16.71;100.00;98306.25;5073773;28;20288;-72
2021/09/05 05:44:05;;;;;;;5.73;4.30;;;;;;;16.98;100.00;98299.50;5089888;28;20235;-71
2021/09/05 05:46:36;;;;;;;9.23;4.50;;;;;;;17.02;100.00;98292.00;5090001;28;20669;-71
2021/09/05 05:49:02;;;;;;;6.63;4.90;;;;;;;16.79;100.00;98292.03;5089113;28;20247;-72
2021/09/05 05:51:29;;;;;;;6.93;4.67;;;;;;;18.11;100.00;98297.03;5071451;28;20209;-72
2021/09/05 05:53:57;;;;;;;7.50;4.47;;;;;;;22.73;100.00;98242.44;5071029;28;20239;-72
2021/09/05 05:56:23;;;;;;;6.63;4.55;;;;;;;24.88;100.00;98203.81;5079252;28;20673;-72
2021/09/05 05:58:50;;;;;;;8.82;5.18;;;;;;;25.62;100.00;98183.41;5091363;28;20669;-72
2021/09/05 06:01:16;;;;;;;6.97;4.20;;;;;;;25.30;100.00;98197.38;5091603;28;20204;-73
2021/09/05 06:03:43;;;;;;;6.85;4.28;;;;;;;20.73;100.00;98210.41;5091251;28;20303;-73
2021/09/05 06:06:10;;;;;;;6.72;4.75;;;;;;;19.51;100.00;98234.19;5089862;28;20251;-72
2021/09/05 06:08:37;;;;;;;6.65;4.28;;;;;;;19.57;100.00;98250.25;5091464;28;20212;-72
2021/09/05 06:11:03;;;;;;;5.63;4.20;;;;;;;23.46;100.00;98224.00;5089979;28;20707;-72
2021/09/05 06:13:30;;;;;;;7.20;4.70;;;;;;;25.17;100.00;98206.91;5090717;28;20665;-72
2021/09/05 06:15:56;;;;;;;6.60;4.30;;;;;;;26.00;100.00;98197.94;5089913;28;20215;-73
2021/09/05 06:18:23;;;;;;;5.68;4.28;;;;;;;26.80;100.00;98197.25;5090616;28;20200;-73
2021/09/05 06:20:50;;;;;;;5.68;4.20;;;;;;;26.87;100.00;98195.03;5094251;28;20200;-72
2021/09/05 06:23:16;;;;;;;5.88;4.25;;;;;;;27.38;100.00;98198.94;5093808;28;20254;-74
2021/09/05 06:25:44;;;;;;;6.93;4.30;;;;;;;27.46;100.00;98202.38;5094615;28;20207;-73
2021/09/05 06:28:10;;;;;;;5.00;3.67;;;;;;;27.41;100.00;98200.88;5094190;28;20204;-72
2021/09/05 06:30:37;;;;;;;7.13;4.30;;;;;;;27.33;100.00;98210.84;5095158;28;20210;-73
2021/09/05 06:33:03;;;;;;;5.38;3.75;;;;;;;26.64;100.00;98205.75;5094701;28;20239;-72
2021/09/05 06:35:30;;;;;;;7.47;3.90;;;;;;;26.75;100.00;98209.13;5094295;28;20320;-71
2021/09/05 06:37:57;;;;;;;7.82;4.10;;;;;;;26.58;100.00;98208.31;5093566;28;20740;-71
2021/09/05 06:40:23;;;;;;;5.28;3.95;;;;;;;25.95;100.00;98218.22;5093377;28;20292;-71
2021/09/05 06:42:49;;;;;;;5.40;4.00;;;;;;;26.39;100.00;98216.84;5094541;28;20606;-71
2021/09/05 06:45:16;;;;;;;6.93;4.28;;;;;;;26.55;100.00;98222.56;5092739;28;20592;-71
2021/09/05 06:47:42;;;;;;;5.07;3.85;;;;;;;26.84;100.00;98217.81;5094612;28;20294;-71
2021/09/05 06:50:11;;;;;;;5.75;4.22;;;;;;;26.14;100.00;98222.28;5081406;28;20254;-72
2021/09/05 06:52:38;;;;;;;5.63;3.65;;;;;;;25.05;100.00;98220.41;5074321;28;20225;-71
2021/09/05 06:55:05;;;;;;;4.82;3.53;;;;;;;25.29;100.00;98221.19;5039199;28;20554;-71
2021/09/05 06:57:32;;;;;;;6.10;4.65;;;;;;;26.21;100.00;98219.28;5091980;28;20624;-71
2021/09/05 06:59:59;;;;;;;6.93;3.80;;;;;;;26.43;100.00;98215.53;5093090;28;20240;-72
2021/09/05 07:02:26;;;;;;;5.38;3.90;;;;;;;26.21;100.00;98216.47;5093217;28;20295;-72
2021/09/05 07:04:52;;;;;;;4.88;3.75;;;;;;;26.91;100.00;98220.44;5092509;28;20227;-71
2021/09/05 07:07:39;;;;;;;4.85;4.00;;;;;;;27.16;100.00;98217.75;5094597;28;20200;-72
2021/09/05 07:10:06;;;;;;;4.80;3.53;;;;;;;27.64;100.00;98219.69;5095606;28;20314;-72
2021/09/05 07:12:38;;;;;;;5.55;3.33;;;;;;;27.93;100.00;98226.16;5094359;28;20263;-71
2021/09/05 07:15:05;;;;;;;6.10;3.90;;;;;;;28.21;100.00;98225.25;5097294;28;20243;-72
2021/09/05 07:17:32;;;;;;;4.72;3.63;;;;;;;28.66;100.00;98227.91;5100748;28;20204;-72
2021/09/05 07:19:59;;;;;;;4.45;3.60;;;;;;;28.21;100.00;98233.00;5081962;28;20196;-72
2021/09/05 07:22:26;;;;;;;5.38;3.67;;;;;;;27.53;100.00;98234.16;5099019;28;20246;-72
2021/09/05 07:24:53;;;;;;;5.28;3.75;;;;;;;28.34;100.00;98233.81;5095299;28;20220;-71
2021/09/05 07:27:19;;;;;;;4.47;3.50;;;;;;;28.16;100.00;98240.03;5076225;28;20291;-72
2021/09/05 07:29:46;;;;;;;4.40;3.38;;;;;;;29.42;100.00;98239.94;5072752;28;20220;-71
2021/09/05 07:32:12;;;;;;;3.58;3.28;;;;;;;28.51;100.00;98249.47;5079842;28;20204;-71
2021/09/05 07:34:39;;;;;;;6.15;3.25;;;;;;;29.85;100.00;98240.00;5112474;28;20251;-72
2021/09/05 07:37:06;;;;;;;4.97;4.10;;;;;;;30.38;100.00;98233.06;5114052;28;20299;-72
2021/09/05 07:39:32;;;;;;;4.22;3.40;;;;;;;31.10;100.00;98243.97;5112958;28;20242;-72
2021/09/05 07:41:59;;;;;;;3.92;3.53;;;;;;;31.26;100.00;98252.22;5113833;28;20207;-73
2021/09/05 07:44:26;;;;;;;3.45;3.15;;;;;;;31.52;100.00;98255.59;5113161;28;20329;-72
2021/09/05 07:46:52;;;;;;;4.53;2.88;;;;;;;31.54;100.00;98255.94;5113311;28;20298;-73
2021/09/05 07:49:19;;;;;;;4.18;2.97;;;;;;;31.16;100.00;98247.78;5108433;28;20235;-72
2021/09/05 07:51:45;;;;;;;4.35;3.10;;;;;;;31.50;100.00;98247.53;5092122;28;20366;-73
2021/09/05 07:54:12;;;;;;;5.43;3.60;;;;;;;30.95;100.00;98248.66;5092931;28;20662;-72
2021/09/05 07:56:38;;;;;;;4.18;2.95;;;;;;;31.19;100.00;98251.72;5092877;28;20286;-73
2021/09/05 07:59:05;;;;;;;3.80;3.33;;;;;;;31.32;100.00;98256.03;5093280;28;20221;-73
2021/09/05 08:01:31;;;;;;;4.45;2.35;;;;;;;31.31;100.00;98248.75;5092573;28;20298;-72
2021/09/05 08:03:58;;;;;;;4.97;3.10;;;;;;;31.57;100.00;98250.06;5090821;28;20227;-73
2021/09/05 08:06:26;;;;;;;3.38;2.97;;;;;;;31.59;100.00;98253.22;5092549;28;20665;-73
2021/09/05 08:08:52;;;;;;;2.95;2.63;;;;;;;31.53;100.00;98249.41;5091444;28;20651;-73
2021/09/05 08:11:19;;;;;;;4.18;3.20;;;;;;;31.83;100.00;98250.53;5092628;28;20199;-72
2021/09/05 08:13:45;;;;;;;2.80;2.60;;;;;;;31.78;100.00;98254.84;5092438;28;20314;-72
2021/09/05 08:16:12;;;;;;;4.45;2.85;;;;;;;32.33;100.00;98261.28;5090875;28;20238;-72
2021/09/05 08:18:38;;;;;;;2.95;2.63;;;;;;;32.24;100.00;98251.94;5092780;28;20200;-72
2021/09/05 08:21:07;;;;;;;5.10;2.60;;;;;;;32.45;100.00;98256.66;5092804;28;20215;-72
2021/09/05 08:23:36;;;;;;;3.10;2.80;;;;;;;32.30;100.00;98255.72;5092531;28;20227;-72
2021/09/05 08:26:04;;;;;;;2.65;2.38;;;;;;;32.50;100.00;98256.78;5092145;28;20322;-73
2021/09/05 08:28:31;;;;;;;3.58;2.97;;;;;;;32.61;100.00;98259.94;5092210;28;20231;-71
2021/09/05 08:30:57;;;;;;;2.95;2.58;;;;;;;32.55;100.00;98261.88;5091295;28;20302;-72
2021/09/05 08:33:24;;;;;;;3.35;2.50;;;;;;;32.45;100.00;98263.16;5091622;28;20242;-71
2021/09/05 08:35:52;;;;;;;2.75;2.55;;;;;;;32.46;100.00;98264.75;5091494;28;20695;-72
2021/09/05 08:38:18;;;;;;;4.78;2.53;;;;;;;32.35;100.00;98263.66;5091086;28;20262;-71
2021/09/05 08:40:47;;;;;;;4.25;2.40;;;;;;;32.08;100.00;98267.34;5091998;28;20295;-71
2021/09/05 08:43:16;;;;;;;5.05;2.72;;;;;;;32.58;100.00;98265.81;5091179;28;20220;-71
2021/09/05 08:45:45;;;;;;;3.67;3.05;;;;;;;32.67;100.00;98268.66;5090596;28;20227;-72
2021/09/05 08:48:15;;;;;;;3.95;2.53;;;;;;;32.66;100.00;98267.06;5090897;28;20282;-72
2021/09/05 08:50:42;;;;;;;3.17;2.85;;;;;;;32.92;100.00;98262.47;5074104;28;20658;-71
2021/09/05 08:53:09;;;;;;;3.95;2.95;;;;;;;33.19;100.00;98268.13;5071551;28;20320;-72
2021/09/05 08:55:36;;;;;;;3.47;2.53;;;;;;;33.36;100.00;98259.88;5072821;28;20773;-72
2021/09/05 08:58:03;;;;;;;3.20;2.67;;;;;;;33.18;100.00;98263.66;5091910;28;20675;-71
2021/09/05 09:00:29;;;;;;;3.38;2.60;;;;;;;33.25;100.00;98268.25;5092170;28;20306;-72
2021/09/05 09:02:57;;;;;;;3.03;2.60;;;;;;;32.95;100.00;98272.22;5093767;28;20227;-72
2021/09/05 09:05:36;;;;;;;2.65;2.45;;;;;;;33.10;100.00;98265.31;5092947;28;20224;-72
2021/09/05 09:08:04;;;;;;;4.20;2.88;;;;;;;32.63;100.00;98265.16;5091643;28;20204;-72
2021/09/05 09:10:32;;;;;;;2.65;2.42;;;;;;;32.23;100.00;98270.31;5091941;28;20739;-72
2021/09/05 09:12:59;;;;;;;2.58;2.38;;;;;;;32.40;100.00;98265.84;5091483;28;20227;-71
2021/09/05 09:15:31;;;;;;;3.00;2.70;;;;;;;32.34;100.00;98267.75;5090834;28;20290;-73
2021/09/05 09:18:03;;;;;;;3.20;2.47;;;;;;;32.97;100.00;98264.75;5091800;28;20235;-71
2021/09/05 09:20:34;;;;;;;4.38;2.65;;;;;;;32.93;100.00;98266.94;5091896;28;20208;-71
2021/09/05 09:23:11;;;;;;;2.80;2.58;;;;;;;32.94;100.00;98265.69;5091607;28;20259;-72
2021/09/05 09:25:48;;;;;;;3.25;2.95;;;;;;;32.89;100.00;98260.59;5089735;28;20778;-72
2021/09/05 09:28:29;;;;;;;3.22;2.70;;;;;;;33.42;100.00;98257.94;5091966;28;20235;-72
2021/09/05 09:30:58;;;;;;;4.60;3.08;;;;;;;32.62;100.00;98261.53;5091497;28;20212;-72
2021/09/05 09:33:28;;;;;;;3.50;2.63;;;;;;;32.68;100.00;98259.56;5090944;28;20322;-72
2021/09/05 09:35:57;;;;;;;3.30;2.55;;;;;;;32.16;100.00;98267.81;5090869;28;20244;-71
2021/09/05 09:38:24;;;;;;;3.47;2.53;;;;;;;32.64;100.00;98269.63;5090118;28;20257;-72
2021/09/05 09:41:05;;;;;;;3.13;2.80;;;;;;;32.87;100.00;98263.16;5091112;28;20256;-71
2021/09/05 09:43:31;;;;;;;3.65;2.83;;;;;;;32.97;100.00;98263.94;5090974;28;20310;-72
2021/09/05 09:46:13;;;;;;;3.67;3.00;;;;;;;32.49;100.00;98268.72;5091008;28;20310;-71
2021/09/05 09:48:48;;;;;;;2.80;2.47;;;;;;;32.36;100.00;98270.94;5089759;28;20214;-73
2021/09/05 09:51:16;;;;;;;3.92;3.30;;;;;;;31.58;100.00;98268.78;5071081;28;20307;-71
2021/09/05 09:53:43;;;;;;;4.55;3.28;;;;;;;31.97;100.00;98260.56;5071029;28;20692;-71
2021/09/05 09:56:16;;;;;;;3.92;2.78;;;;;;;31.64;100.00;98266.09;5075235;28;20224;-73
2021/09/05 09:58:45;;;;;;;3.65;2.95;;;;;;;29.97;100.00;98263.97;5074585;28;20218;-71
2021/09/05 10:01:17;;;;;;;3.47;3.10;;;;;;;31.85;100.00;98259.41;5074452;28;20333;-71
2021/09/05 10:03:48;;;;;;;4.28;3.10;;;;;;;30.82;100.00;98263.03;5073797;28;20294;-71
2021/09/05 10:06:14;;;;;;;5.95;3.85;;;;;;;31.18;100.00;98265.22;5073443;28;20224;-72
2021/09/05 10:08:46;;;;;;;5.35;3.58;;;;;;;31.25;100.00;98262.06;5073916;28;20240;-72
2021/09/05 10:11:16;;;;;;;4.20;3.67;;;;;;;30.38;100.00;98263.63;5074308;28;20258;-72
2021/09/05 10:13:43;;;;;;;5.47;4.13;;;;;;;30.08;100.00;98258.66;5089862;28;20255;-71
2021/09/05 10:16:11;;;;;;;5.70;4.05;;;;;;;30.34;100.00;98260.13;5073929;28;20342;-71
2021/09/05 10:18:49;;;;;;;5.10;3.47;;;;;;;30.83;100.00;98253.25;5074449;28;20213;-71
2021/09/05 10:21:18;;;;;;;6.53;3.63;;;;;;;29.59;100.00;98259.22;5073979;28;20244;-72
2021/09/05 10:23:47;;;;;;;4.15;3.08;;;;;;;29.97;100.00;98252.56;5090307;28;20251;-71
2021/09/05 10:26:15;;;;;;;6.07;4.00;;;;;;;30.06;100.00;98255.47;5073576;28;20406;-71
2021/09/05 10:28:45;;;;;;;5.70;3.72;;;;;;;30.33;100.00;98252.84;5080694;28;20205;-72
2021/09/05 10:31:41;;;;;;;5.80;4.00;;;;;;;29.97;100.00;98249.72;5092740;28;20269;-72
2021/09/05 10:34:31;;;;;;;8.27;6.10;;;;;;;29.45;100.00;98250.41;5109783;28;20263;-73
2021/09/05 10:37:14;;;;;;;7.20;3.90;;;;;;;30.41;100.00;98248.44;5115303;28;20734;-73
2021/09/05 10:40:09;;;;;;;4.63;3.35;;;;;;;30.10;100.00;98241.91;5115894;28;20235;-72
2021/09/05 10:42:56;;;;;;;4.65;3.58;;;;;;;29.53;100.00;98246.03;5118535;28;20215;-71
2021/09/05 10:45:24;;;;;;;5.28;4.05;;;;;;;29.14;100.00;98255.97;5113206;28;20764;-73
2021/09/05 10:47:50;;;;;;;4.65;3.63;;;;;;;28.53;100.00;98250.66;5113632;28;20207;-72
2021/09/05 10:50:36;;;;;;;4.97;3.42;;;;;;;28.58;100.00;98254.97;5100794;28;20239;-71
2021/09/05 10:53:14;;;;;;;7.38;3.83;;;;;;;29.36;100.00;98245.41;5093722;28;20227;-74
2021/09/05 10:56:05;;;;;;;4.43;3.35;;;;;;;29.13;100.00;98245.84;5092803;28;20242;-71
2021/09/05 10:58:40;;;;;;;10.88;8.38;;;;;;;29.03;100.00;98246.97;5095627;28;20239;-72
2021/09/05 11:01:09;;;;;;;24.48;17.63;;;;;;;29.28;100.00;98241.25;5094989;28;20212;-73
2021/09/05 11:04:14;;;;;;;8.77;6.00;;;;;;;28.83;100.00;98249.28;5095082;28;20758;-72
2021/09/05 11:06:44;;;;;;;4.32;3.13;;;;;;;28.45;100.00;98257.00;5092828;28;20282;-72
2021/09/05 11:09:23;;;;;;;4.40;3.78;;;;;;;28.84;100.00;98245.97;5091101;28;20307;-75
2021/09/05 11:12:11;;;;;;;5.03;3.72;;;;;;;29.09;100.00;98245.13;5089707;28;20742;-72
2021/09/05 11:14:37;;;;;;;5.72;3.78;;;;;;;26.96;100.00;98254.72;5089652;28;20235;-72
2021/09/05 11:17:07;;;;;;;7.88;3.30;;;;;;;27.60;100.00;98259.50;5093944;28;20688;-74
2021/09/05 11:19:56;;;;;;;5.10;3.58;;;;;;;28.61;100.00;98254.06;5089811;28;20204;-74
2021/09/05 11:22:29;;;;;;;6.45;4.68;;;;;;;28.97;100.00;98243.13;5085189;28;20287;-72
2021/09/05 11:25:08;;;;;;;5.93;3.97;;;;;;;28.75;100.00;98248.72;5080649;28;20268;-72
2021/09/05 11:27:36;;;;;;;4.78;3.95;;;;;;;29.12;100.00;98244.25;5084545;28;20205;-74
2021/09/05 11:30:06;;;;;;;4.45;3.20;;;;;;;28.66;100.00;98250.66;5092684;28;20210;-74
2021/09/05 11:32:33;;;;;;;5.07;3.40;;;;;;;27.77;100.00;98249.66;5072887;28;20271;-74
2021/09/05 11:34:59;;;;;;;4.50;3.60;;;;;;;28.28;100.00;98242.09;5091733;28;20211;-74
2021/09/05 11:37:30;;;;;;;4.25;3.38;;;;;;;28.36;100.00;98248.31;5087440;28;20692;-72
2021/09/05 11:40:06;;;;;;;4.40;3.50;;;;;;;28.41;100.00;98250.63;5091464;28;20204;-73
2021/09/05 11:42:33;;;;;;;4.18;3.47;;;;;;;28.51;100.00;98255.16;5091544;28;20214;-75
2021/09/05 11:45:04;;;;;;;3.97;3.03;;;;;;;28.26;100.00;98255.16;5090983;28;20343;-75
2021/09/05 11:47:31;;;;;;;3.65;3.00;;;;;;;28.83;100.00;98249.28;5092609;28;20311;-74
2021/09/05 11:49:59;;;;;;;4.10;3.33;;;;;;;28.98;100.00;98239.00;5080419;28;20293;-76
2021/09/05 11:52:34;;;;;;;4.97;3.30;;;;;;;28.52;100.00;98245.41;5072318;28;20208;-74
2021/09/05 11:55:21;;;;;;;8.13;4.43;;;;;;;27.32;100.00;98248.91;5070813;28;20618;-73
2021/09/05 11:57:58;;;;;;;5.32;3.50;;;;;;;27.08;100.00;98247.50;5091965;28;20262;-73
2021/09/05 12:00:30;;;;;;;4.85;3.75;;;;;;;27.18;100.00;98245.63;5092676;28;20204;-75
2021/09/05 12:02:59;;;;;;;5.80;3.63;;;;;;;28.15;100.00;98240.47;5092763;28;20240;-74
2021/09/05 12:05:27;;;;;;;9.25;6.32;;;;;;;28.14;100.00;98247.41;5093587;28;20281;-74